Time;durP1;ratioP1;P1;durP2;ratioP2;P2;SDS_P1;SDS_P2;PMS_P1;PMS_P2;Temp;Humidity;BMP_temperature;BMP_pressure;BME280_temperature;BME280_humidity;BME280_pressure;Samples;Min_cycle;Max_cycle;Signal;HPM_P1;HPM_P2
2023/03/30 00:00:18;;;;;;;9.13;3.00;;;;;;;;;;5011712;28;20033;-72
2023/03/30 00:03:04;;;;;;;5.70;1.80;;;;;;;;;;5029085;28;20025;-71
2023/03/30 00:05:50;;;;;;;10.13;2.70;;;;;;;;;;5026923;28;20469;-71
2023/03/30 00:08:36;;;;;;;11.70;2.88;;;;;;;;;;5011163;28;20033;-73
2023/03/30 00:11:22;;;;;;;9.50;2.53;;;;;;;;;;5024234;28;20447;-68
2023/03/30 00:14:07;;;;;;;9.70;2.40;;;;;;;;;;5013226;28;20128;-72
2023/03/30 00:16:52;;;;;;;8.75;2.38;;;;;;;;;;5011700;28;20468;-71
2023/03/30 00:19:37;;;;;;;8.90;2.47;;;;;;;;;;5027741;28;20041;-70
2023/03/30 00:22:23;;;;;;;7.85;2.65;;;;;;;;;;5027272;28;20481;-72
2023/03/30 00:25:09;;;;;;;9.50;3.13;;;;;;;;;;5024801;28;20022;-71
2023/03/30 00:27:55;;;;;;;16.88;3.67;;;;;;;;;;5024757;28;20048;-78
2023/03/30 00:30:40;;;;;;;8.18;2.33;;;;;;;;;;5026595;28;20029;-79
2023/03/30 00:33:26;;;;;;;12.50;2.42;;;;;;;;;;5023058;28;20120;-75
2023/03/30 00:36:11;;;;;;;6.70;2.05;;;;;;;;;;5011939;28;20029;-76
2023/03/30 00:38:56;;;;;;;9.70;2.10;;;;;;;;;;5012185;28;20026;-76
2023/03/30 00:41:42;;;;;;;13.07;3.05;;;;;;;;;;5023894;28;20025;-79
2023/03/30 00:44:47;;;;;;;19.23;2.42;;;;;;;;;;5011454;28;20037;-75
2023/03/30 00:47:34;;;;;;;11.45;3.08;;;;;;;;;;5011890;28;20498;-79
2023/03/30 00:50:23;;;;;;;13.68;3.47;;;;;;;;;;5023908;28;20491;-79
2023/03/30 00:53:19;;;;;;;8.43;2.53;;;;;;;;;;5008107;28;20033;-79
2023/03/30 00:56:17;;;;;;;12.32;2.95;;;;;;;;;;5011741;28;20496;-79
2023/03/30 00:59:03;;;;;;;9.20;2.83;;;;;;;;;;5011868;28;20159;-76
2023/03/30 01:02:00;;;;;;;10.88;3.15;;;;;;;;;;5020426;28;20041;-78
2023/03/30 01:04:47;;;;;;;9.55;2.28;;;;;;;;;;5000609;28;20033;-72
2023/03/30 01:07:33;;;;;;;11.93;3.13;;;;;;;;;;5026725;28;20026;-75
2023/03/30 01:10:19;;;;;;;8.18;2.33;;;;;;;;;;5011532;28;20071;-77
2023/03/30 01:13:05;;;;;;;10.57;1.80;;;;;;;;;;5026637;28;20053;-77
2023/03/30 01:15:57;;;;;;;16.85;3.05;;;;;;;;;;5009363;28;20120;-80
2023/03/30 01:19:02;;;;;;;15.35;2.90;;;;;;;;;;5021416;28;20111;-78
2023/03/30 01:22:06;;;;;;;14.15;4.07;;;;;;;;;;5006304;28;20255;-77
2023/03/30 01:25:13;;;;;;;12.90;2.65;;;;;;;;;;5011377;28;20036;-68
2023/03/30 01:28:23;;;;;;;11.68;4.25;;;;;;;;;;5022535;28;20036;-74
2023/03/30 01:31:11;;;;;;;10.75;3.60;;;;;;;;;;5024824;28;20255;-73
2023/03/30 01:34:16;;;;;;;12.25;2.85;;;;;;;;;;5009862;28;20568;-73
2023/03/30 01:37:20;;;;;;;12.82;2.83;;;;;;;;;;5019988;28;20021;-72
2023/03/30 01:40:26;;;;;;;13.43;2.95;;;;;;;;;;5021417;28;20504;-74
2023/03/30 01:43:30;;;;;;;13.70;2.63;;;;;;;;;;5011176;28;20030;-74
2023/03/30 01:46:23;;;;;;;12.82;2.95;;;;;;;;;;5011701;28;20026;-77
2023/03/30 01:49:14;;;;;;;7.35;2.47;;;;;;;;;;5025288;28;20049;-80
2023/03/30 01:52:20;;;;;;;14.38;4.75;;;;;;;;;;5018607;28;20034;-77
2023/03/30 01:55:05;;;;;;;14.50;2.92;;;;;;;;;;5007033;28;20512;-77
2023/03/30 01:57:54;;;;;;;12.93;3.95;;;;;;;;;;5024082;28;20053;-76
2023/03/30 02:00:42;;;;;;;11.77;3.10;;;;;;;;;;5023906;28;20124;-73
2023/03/30 02:03:29;;;;;;;7.65;2.92;;;;;;;;;;5024028;28;20108;-72
2023/03/30 02:06:17;;;;;;;8.85;3.53;;;;;;;;;;5023535;28;20112;-70
2023/03/30 02:09:02;;;;;;;13.70;3.05;;;;;;;;;;5017733;28;20025;-72
2023/03/30 02:11:48;;;;;;;11.77;3.72;;;;;;;;;;5008218;28;20059;-74
2023/03/30 02:14:35;;;;;;;11.25;2.97;;;;;;;;;;5023628;28;20480;-71
2023/03/30 02:17:22;;;;;;;15.40;3.97;;;;;;;;;;5024965;28;20115;-73
2023/03/30 02:20:08;;;;;;;12.82;3.95;;;;;;;;;;5011948;28;20239;-72
2023/03/30 02:22:56;;;;;;;11.55;3.05;;;;;;;;;;5006891;28;20026;-69
2023/03/30 02:25:41;;;;;;;12.55;3.67;;;;;;;;;;5022042;28;20506;-68
2023/03/30 02:28:26;;;;;;;10.35;3.97;;;;;;;;;;5023510;28;20025;-69
2023/03/30 02:31:13;;;;;;;17.45;3.22;;;;;;;;;;5010740;28;20090;-67
2023/03/30 02:34:33;;;;;;;9.85;2.85;;;;;;;;;;5024841;28;20441;-69
2023/03/30 02:37:23;;;;;;;20.42;3.70;;;;;;;;;;4995387;28;20018;-79
2023/03/30 02:40:16;;;;;;;8.68;3.78;;;;;;;;;;5023231;28;20116;-72
2023/03/30 02:43:14;;;;;;;9.40;3.47;;;;;;;;;;5021811;28;20120;-74
2023/03/30 02:46:18;;;;;;;15.60;3.03;;;;;;;;;;5011081;28;20033;-71
2023/03/30 02:49:10;;;;;;;16.00;4.32;;;;;;;;;;5021342;28;20050;-72
2023/03/30 02:52:00;;;;;;;13.63;4.13;;;;;;;;;;5011022;28;20037;-71
2023/03/30 02:55:18;;;;;;;13.77;3.28;;;;;;;;;;5010088;28;20057;-78
2023/03/30 02:58:18;;;;;;;13.80;3.33;;;;;;;;;;4960164;28;20035;-75
2023/03/30 03:01:15;;;;;;;12.23;3.22;;;;;;;;;;4943887;28;20117;-74
2023/03/30 03:04:02;;;;;;;11.23;2.70;;;;;;;;;;4936921;28;20026;-73
2023/03/30 03:06:51;;;;;;;10.63;2.78;;;;;;;;;;4949994;28;20031;-73
2023/03/30 03:09:36;;;;;;;7.45;2.50;;;;;;;;;;4949493;28;20027;-72
2023/03/30 03:12:22;;;;;;;10.00;3.35;;;;;;;;;;4962019;28;20162;-74
2023/03/30 03:15:07;;;;;;;20.60;3.70;;;;;;;;;;4952223;28;20489;-81
2023/03/30 03:17:52;;;;;;;12.75;4.38;;;;;;;;;;4952468;28;20027;-76
2023/03/30 03:20:38;;;;;;;10.48;4.35;;;;;;;;;;4951906;28;20035;-76
2023/03/30 03:23:23;;;;;;;16.45;4.43;;;;;;;;;;4950414;28;20037;-75
2023/03/30 03:26:09;;;;;;;11.55;3.08;;;;;;;;;;4952185;28;20565;-77
2023/03/30 03:28:54;;;;;;;14.05;3.58;;;;;;;;;;4953456;28;20453;-76
2023/03/30 03:31:39;;;;;;;14.48;3.55;;;;;;;;;;4952373;28;20146;-72
2023/03/30 03:34:35;;;;;;;16.13;3.95;;;;;;;;;;5023327;28;20041;-78
2023/03/30 03:37:20;;;;;;;11.75;3.40;;;;;;;;;;5026687;28;20388;-67
2023/03/30 03:40:05;;;;;;;13.63;3.25;;;;;;;;;;5027935;28;20021;-68
2023/03/30 03:42:51;;;;;;;13.07;4.22;;;;;;;;;;5013001;28;20022;-68
2023/03/30 03:45:36;;;;;;;16.85;3.42;;;;;;;;;;5027221;28;20025;-69
2023/03/30 03:48:22;;;;;;;17.58;4.35;;;;;;;;;;5012465;28;20930;-68
2023/03/30 03:51:08;;;;;;;10.65;2.47;;;;;;;;;;5028047;28;20112;-77
2023/03/30 03:53:54;;;;;;;11.77;3.10;;;;;;;;;;5024172;28;20041;-71
2023/03/30 03:56:40;;;;;;;18.23;3.58;;;;;;;;;;5014796;28;20059;-71
2023/03/30 03:59:25;;;;;;;11.52;3.50;;;;;;;;;;5026781;28;20025;-72
2023/03/30 04:02:10;;;;;;;17.60;3.42;;;;;;;;;;5025571;28;20029;-71
2023/03/30 04:04:56;;;;;;;12.95;4.28;;;;;;;;;;5023782;28;20118;-71
2023/03/30 04:07:45;;;;;;;13.75;4.80;;;;;;;;;;5030137;28;20107;-71
2023/03/30 04:10:30;;;;;;;10.98;3.90;;;;;;;;;;5028707;28;20030;-79
2023/03/30 04:13:16;;;;;;;11.82;3.83;;;;;;;;;;5038618;28;20037;-71
2023/03/30 04:16:01;;;;;;;11.98;3.88;;;;;;;;;;5025361;28;20121;-71
2023/03/30 04:18:46;;;;;;;10.05;3.40;;;;;;;;;;5024652;28;20028;-72
2023/03/30 04:21:31;;;;;;;13.38;3.30;;;;;;;;;;5024694;28;20021;-72
2023/03/30 04:24:17;;;;;;;13.55;2.97;;;;;;;;;;5025075;28;20625;-73
2023/03/30 04:27:02;;;;;;;13.05;2.85;;;;;;;;;;5027147;28;20067;-79
2023/03/30 04:29:48;;;;;;;14.20;3.95;;;;;;;;;;5014270;28;20017;-75
2023/03/30 04:32:33;;;;;;;16.58;4.28;;;;;;;;;;5014033;28;20080;-72
2023/03/30 04:35:19;;;;;;;18.65;4.78;;;;;;;;;;5007463;28;20030;-72
2023/03/30 04:38:05;;;;;;;14.55;3.30;;;;;;;;;;5013334;28;20032;-71
2023/03/30 04:40:51;;;;;;;13.82;3.83;;;;;;;;;;5023641;28;20394;-74
2023/03/30 04:43:36;;;;;;;15.95;3.05;;;;;;;;;;5039724;28;20108;-71
2023/03/30 04:46:21;;;;;;;13.82;3.30;;;;;;;;;;5027343;28;20556;-81
2023/03/30 04:49:06;;;;;;;11.43;2.97;;;;;;;;;;5012168;28;20049;-76
2023/03/30 04:51:53;;;;;;;12.50;4.10;;;;;;;;;;5023840;28;20044;-77
2023/03/30 04:54:38;;;;;;;23.13;4.70;;;;;;;;;;5024733;28;20060;-76
2023/03/30 04:57:23;;;;;;;13.18;4.28;;;;;;;;;;5025711;28;20032;-76
2023/03/30 05:00:09;;;;;;;15.50;4.28;;;;;;;;;;5028737;28;20036;-75
2023/03/30 05:02:54;;;;;;;17.65;3.08;;;;;;;;;;5028123;28;20022;-76
2023/03/30 05:05:39;;;;;;;10.57;3.40;;;;;;;;;;5015100;28;20417;-82
2023/03/30 05:08:25;;;;;;;13.43;3.05;;;;;;;;;;5029394;28;20040;-75
2023/03/30 05:11:11;;;;;;;14.07;3.25;;;;;;;;;;5015072;28;20126;-73
2023/03/30 05:13:56;;;;;;;20.63;3.90;;;;;;;;;;5014124;28;20021;-75
2023/03/30 05:16:42;;;;;;;16.08;3.50;;;;;;;;;;5024182;28;20029;-73
2023/03/30 05:19:27;;;;;;;14.77;4.00;;;;;;;;;;5016832;28;20033;-73
2023/03/30 05:22:13;;;;;;;12.85;3.10;;;;;;;;;;5014814;28;20513;-72
2023/03/30 05:24:59;;;;;;;15.45;5.03;;;;;;;;;;5028940;28;20021;-74
2023/03/30 05:27:45;;;;;;;15.23;3.85;;;;;;;;;;5026509;28;20151;-74
2023/03/30 05:30:30;;;;;;;17.70;4.07;;;;;;;;;;5028531;28;20092;-76
2023/03/30 05:33:15;;;;;;;15.90;3.95;;;;;;;;;;5028259;28;20025;-73
2023/03/30 05:36:00;;;;;;;14.35;3.85;;;;;;;;;;5013976;28;20485;-73
2023/03/30 05:38:46;;;;;;;12.88;4.07;;;;;;;;;;5028746;28;20109;-73
2023/03/30 05:41:31;;;;;;;22.50;4.57;;;;;;;;;;5025404;28;21486;-68
2023/03/30 05:44:17;;;;;;;13.70;4.07;;;;;;;;;;5012797;28;20025;-69
2023/03/30 05:47:02;;;;;;;15.45;3.72;;;;;;;;;;5013572;28;20044;-68
2023/03/30 05:49:47;;;;;;;20.38;3.92;;;;;;;;;;5013378;28;20053;-69
2023/03/30 05:52:32;;;;;;;13.23;4.80;;;;;;;;;;5025532;28;20423;-71
2023/03/30 05:55:18;;;;;;;14.27;3.63;;;;;;;;;;5015507;28;20033;-71
2023/03/30 05:58:03;;;;;;;16.90;3.72;;;;;;;;;;5025587;28;20112;-70
2023/03/30 06:00:48;;;;;;;15.52;5.05;;;;;;;;;;5027231;28;20388;-71
2023/03/30 06:03:34;;;;;;;11.55;3.33;;;;;;;;;;5014544;28;20028;-80
2023/03/30 06:06:19;;;;;;;13.07;4.20;;;;;;;;;;5016085;28;20035;-79
2023/03/30 06:09:04;;;;;;;12.82;3.78;;;;;;;;;;5018130;28;20025;-79
2023/03/30 06:11:50;;;;;;;21.23;4.68;;;;;;;;;;5017956;28;20108;-79
2023/03/30 06:14:35;;;;;;;12.90;5.82;;;;;;;;;;5027961;28;20037;-83
2023/03/30 06:17:21;;;;;;;16.38;4.95;;;;;;;;;;5013850;28;20465;-70
2023/03/30 06:20:10;;;;;;;14.90;4.10;;;;;;;;;;5012925;28;20017;-83
2023/03/30 06:22:55;;;;;;;14.55;5.07;;;;;;;;;;5013601;28;20072;-74
2023/03/30 06:25:44;;;;;;;13.75;4.90;;;;;;;;;;5028218;28;20188;-75
2023/03/30 06:28:29;;;;;;;13.18;4.05;;;;;;;;;;5034530;28;20024;-74
2023/03/30 06:31:15;;;;;;;15.20;5.15;;;;;;;;;;5024394;28;20094;-76
2023/03/30 06:34:00;;;;;;;18.05;4.18;;;;;;;;;;5029875;28;20464;-75
2023/03/30 06:36:46;;;;;;;18.63;5.20;;;;;;;;;;5022087;28;20026;-84
2023/03/30 06:39:31;;;;;;;16.52;5.90;;;;;;;;;;5029993;28;20030;-83
2023/03/30 06:42:17;;;;;;;19.92;4.72;;;;;;;;;;5010168;28;20029;-82
2023/03/30 06:45:03;;;;;;;20.38;4.10;;;;;;;;;;5026778;28;20458;-80
2023/03/30 06:47:48;;;;;;;18.25;4.55;;;;;;;;;;5009601;28;20045;-79
2023/03/30 06:50:35;;;;;;;15.68;4.43;;;;;;;;;;5014295;28;20037;-76
2023/03/30 06:53:21;;;;;;;16.40;4.20;;;;;;;;;;5017279;28;20028;-77
2023/03/30 06:56:06;;;;;;;18.88;4.25;;;;;;;;;;5016838;28;20025;-75
2023/03/30 06:58:52;;;;;;;11.40;4.03;;;;;;;;;;5017623;28;20037;-75
2023/03/30 07:01:37;;;;;;;14.90;4.32;;;;;;;;;;5029431;28;20033;-77
2023/03/30 07:04:23;;;;;;;15.30;4.50;;;;;;;;;;5030234;28;20480;-76
2023/03/30 07:07:08;;;;;;;16.15;4.95;;;;;;;;;;5015184;28;20029;-76
2023/03/30 07:09:53;;;;;;;14.25;4.65;;;;;;;;;;5035188;28;20037;-67
2023/03/30 07:12:39;;;;;;;14.93;3.90;;;;;;;;;;5028689;28;20074;-75
2023/03/30 07:15:25;;;;;;;17.20;3.28;;;;;;;;;;5032421;28;20043;-75
2023/03/30 07:18:10;;;;;;;17.05;4.10;;;;;;;;;;5030783;28;20021;-74
2023/03/30 07:20:59;;;;;;;15.82;3.80;;;;;;;;;;5029679;28;20512;-76
2023/03/30 07:23:44;;;;;;;16.00;4.35;;;;;;;;;;5015905;28;21250;-76
2023/03/30 07:26:29;;;;;;;16.30;5.15;;;;;;;;;;5029921;28;20081;-77
2023/03/30 07:29:15;;;;;;;13.90;3.92;;;;;;;;;;5017090;28;20021;-74
2023/03/30 07:32:00;;;;;;;12.25;3.80;;;;;;;;;;5019029;28;20533;-80
2023/03/30 07:34:46;;;;;;;13.40;3.85;;;;;;;;;;5017122;28;20026;-72
2023/03/30 07:37:31;;;;;;;14.73;4.25;;;;;;;;;;5016517;28;20049;-75
2023/03/30 07:40:17;;;;;;;15.68;3.33;;;;;;;;;;5017525;28;20025;-76
2023/03/30 07:43:02;;;;;;;8.55;3.75;;;;;;;;;;5017350;28;20025;-77
2023/03/30 07:45:48;;;;;;;13.48;3.58;;;;;;;;;;5017723;28;20048;-76
2023/03/30 07:48:33;;;;;;;13.05;3.97;;;;;;;;;;5015889;28;20056;-76
2023/03/30 07:51:18;;;;;;;12.00;4.63;;;;;;;;;;5013530;28;20093;-74
2023/03/30 07:54:05;;;;;;;10.90;3.10;;;;;;;;;;5029534;28;20030;-79
2023/03/30 07:56:53;;;;;;;18.98;5.32;;;;;;;;;;5016544;28;20029;-81
2023/03/30 07:59:39;;;;;;;12.05;3.72;;;;;;;;;;5030521;28;20021;-83
2023/03/30 08:02:24;;;;;;;12.02;3.05;;;;;;;;;;5030022;28;20518;-81
2023/03/30 08:05:10;;;;;;;8.25;2.70;;;;;;;;;;5015563;28;20036;-76
2023/03/30 08:07:55;;;;;;;11.27;3.42;;;;;;;;;;5015939;28;20040;-71
2023/03/30 08:10:40;;;;;;;8.55;3.17;;;;;;;;;;5030037;28;20033;-78
2023/03/30 08:13:26;;;;;;;17.85;4.88;;;;;;;;;;5030897;28;20112;-80
2023/03/30 08:16:11;;;;;;;11.52;3.00;;;;;;;;;;5029489;28;20435;-78
2023/03/30 08:18:56;;;;;;;11.40;4.20;;;;;;;;;;5029565;28;20523;-77
2023/03/30 08:21:41;;;;;;;8.68;3.10;;;;;;;;;;5026008;28;20120;-84
2023/03/30 08:24:27;;;;;;;11.57;3.83;;;;;;;;;;5030794;28;20118;-77
2023/03/30 08:27:12;;;;;;;17.65;4.47;;;;;;;;;;5017095;28;20713;-73
2023/03/30 08:29:57;;;;;;;8.73;4.13;;;;;;;;;;5029337;28;20487;-75
2023/03/30 08:32:43;;;;;;;10.00;2.67;;;;;;;;;;5014167;28;20108;-77
2023/03/30 08:35:28;;;;;;;9.38;3.30;;;;;;;;;;5028903;28;20076;-74
2023/03/30 08:38:16;;;;;;;11.20;3.40;;;;;;;;;;5047808;28;20033;-73
2023/03/30 08:41:18;;;;;;;12.57;3.38;;;;;;;;;;5051659;28;20040;-75
2023/03/30 08:44:06;;;;;;;9.18;3.28;;;;;;;;;;5030278;28;20353;-80
2023/03/30 08:46:52;;;;;;;8.57;4.20;;;;;;;;;;5016563;28;20037;-78
2023/03/30 08:49:40;;;;;;;8.40;2.92;;;;;;;;;;5016352;28;20684;-76
2023/03/30 08:52:26;;;;;;;13.60;2.83;;;;;;;;;;5016206;28;20021;-73
2023/03/30 08:55:20;;;;;;;7.45;2.65;;;;;;;;;;5012702;28;20115;-72
2023/03/30 08:58:14;;;;;;;12.23;3.88;;;;;;;;;;5017317;28;20030;-73
2023/03/30 09:01:15;;;;;;;13.95;3.63;;;;;;;;;;5029256;28;20094;-72
2023/03/30 09:04:00;;;;;;;12.65;3.13;;;;;;;;;;5015201;28;20028;-74
2023/03/30 09:06:50;;;;;;;5.95;2.72;;;;;;;;;;5030092;28;20009;-74
2023/03/30 09:09:40;;;;;;;9.05;2.55;;;;;;;;;;5032867;28;20039;-72
2023/03/30 09:12:32;;;;;;;10.60;2.58;;;;;;;;;;5016485;28;20017;-70
2023/03/30 09:15:18;;;;;;;6.95;2.85;;;;;;;;;;5028634;28;20068;-73
2023/03/30 09:18:14;;;;;;;9.68;2.85;;;;;;;;;;5027012;28;20069;-71
2023/03/30 09:21:01;;;;;;;4.95;2.05;;;;;;;;;;5017207;28;20047;-70
2023/03/30 09:23:47;;;;;;;10.00;2.38;;;;;;;;;;5028586;28;20052;-75
2023/03/30 09:26:42;;;;;;;8.30;2.22;;;;;;;;;;5031630;28;20025;-79
2023/03/30 09:29:30;;;;;;;12.43;2.67;;;;;;;;;;5024899;28;20029;-80
2023/03/30 09:32:19;;;;;;;7.85;3.38;;;;;;;;;;5012531;28;20491;-78
2023/03/30 09:35:07;;;;;;;6.65;2.13;;;;;;;;;;5018969;28;20466;-79
2023/03/30 09:37:53;;;;;;;6.53;2.47;;;;;;;;;;5015858;28;20024;-79
2023/03/30 09:40:50;;;;;;;8.30;2.25;;;;;;;;;;5019743;28;20369;-80
2023/03/30 09:43:44;;;;;;;7.10;2.35;;;;;;;;;;5027195;28;20108;-77
2023/03/30 09:46:30;;;;;;;6.72;2.15;;;;;;;;;;5027368;28;20033;-79
2023/03/30 09:49:15;;;;;;;4.78;2.03;;;;;;;;;;5015188;28;20087;-78
2023/03/30 09:52:02;;;;;;;9.45;2.50;;;;;;;;;;5011710;28;20029;-80
2023/03/30 09:54:48;;;;;;;5.35;2.47;;;;;;;;;;5014186;28;20488;-84
2023/03/30 09:57:33;;;;;;;4.70;2.25;;;;;;;;;;5018165;28;20060;-75
2023/03/30 10:00:26;;;;;;;3.97;1.90;;;;;;;;;;5012004;28;20610;-71
2023/03/30 10:03:19;;;;;;;8.05;2.15;;;;;;;;;;5031294;28;20475;-75
2023/03/30 10:06:11;;;;;;;7.53;3.05;;;;;;;;;;5043481;28;20087;-78
2023/03/30 10:08:57;;;;;;;7.10;2.35;;;;;;;;;;5043169;28;20037;-76
2023/03/30 10:11:44;;;;;;;7.32;2.30;;;;;;;;;;5014528;28;20032;-77
2023/03/30 10:14:31;;;;;;;5.13;2.05;;;;;;;;;;5011316;28;20056;-76
2023/03/30 10:17:21;;;;;;;4.40;1.90;;;;;;;;;;5028690;28;20018;-68
2023/03/30 10:20:15;;;;;;;5.82;2.53;;;;;;;;;;5019130;28;20043;-75
2023/03/30 10:23:12;;;;;;;7.15;2.30;;;;;;;;;;5018040;28;20116;-74
2023/03/30 10:26:00;;;;;;;4.85;2.33;;;;;;;;;;5019184;28;20042;-76
2023/03/30 10:29:18;;;;;;;6.83;2.30;;;;;;;;;;5013718;28;20035;-76
2023/03/30 10:32:08;;;;;;;9.15;2.00;;;;;;;;;;4978017;28;20041;-75
2023/03/30 10:34:55;;;;;;;4.55;2.47;;;;;;;;;;5003798;28;20052;-77
2023/03/30 10:37:43;;;;;;;9.02;2.25;;;;;;;;;;5012277;28;20377;-71
2023/03/30 10:40:36;;;;;;;7.20;2.25;;;;;;;;;;5013887;28;20584;-74
2023/03/30 10:43:24;;;;;;;7.10;2.22;;;;;;;;;;5027344;28;20104;-71
2023/03/30 10:46:17;;;;;;;7.38;2.35;;;;;;;;;;5024064;28;20058;-71
2023/03/30 10:49:18;;;;;;;4.95;2.63;;;;;;;;;;5025896;28;20056;-70
2023/03/30 10:52:13;;;;;;;4.38;2.15;;;;;;;;;;5043863;28;20108;-70
2023/03/30 10:55:21;;;;;;;8.55;2.60;;;;;;;;;;5042919;28;20037;-74
2023/03/30 10:58:26;;;;;;;5.70;2.45;;;;;;;;;;5027542;28;20038;-74
2023/03/30 11:01:14;;;;;;;9.75;2.88;;;;;;;;;;5025918;28;20033;-74
2023/03/30 11:04:02;;;;;;;6.22;2.63;;;;;;;;;;5007054;28;20476;-73
2023/03/30 11:06:48;;;;;;;5.78;2.67;;;;;;;;;;5023374;28;20064;-74
2023/03/30 11:09:38;;;;;;;8.10;2.25;;;;;;;;;;5026550;28;20112;-76
2023/03/30 11:12:25;;;;;;;6.28;2.72;;;;;;;;;;5030943;28;20032;-75
2023/03/30 11:15:13;;;;;;;6.45;2.60;;;;;;;;;;5028170;28;20140;-71
2023/03/30 11:17:58;;;;;;;6.18;2.85;;;;;;;;;;5024828;28;20107;-72
2023/03/30 11:20:50;;;;;;;8.02;2.40;;;;;;;;;;5012516;28;20032;-72
2023/03/30 11:23:35;;;;;;;7.25;3.00;;;;;;;;;;5026171;28;20029;-73
2023/03/30 11:26:33;;;;;;;7.47;2.92;;;;;;;;;;5027499;28;20100;-72
2023/03/30 11:29:34;;;;;;;6.75;2.63;;;;;;;;;;5028419;28;20026;-73
2023/03/30 11:32:28;;;;;;;6.88;2.55;;;;;;;;;;5013983;28;20451;-69
2023/03/30 11:35:32;;;;;;;6.25;2.42;;;;;;;;;;5042606;28;20040;-69
2023/03/30 11:38:27;;;;;;;6.53;2.70;;;;;;;;;;5019396;28;20056;-70
2023/03/30 11:41:14;;;;;;;6.18;2.35;;;;;;;;;;5043098;28;20020;-69
2023/03/30 11:43:59;;;;;;;11.13;2.75;;;;;;;;;;5030880;28;20376;-71
2023/03/30 11:46:58;;;;;;;8.23;2.63;;;;;;;;;;5035801;28;20030;-69
2023/03/30 11:49:55;;;;;;;7.10;2.85;;;;;;;;;;5014011;28;20143;-71
2023/03/30 11:52:40;;;;;;;9.85;2.58;;;;;;;;;;5043545;28;20037;-74
2023/03/30 11:55:26;;;;;;;5.97;2.70;;;;;;;;;;5029806;28;20520;-76
2023/03/30 11:58:18;;;;;;;8.48;3.30;;;;;;;;;;5033435;28;20079;-76
2023/03/30 12:01:13;;;;;;;6.47;3.08;;;;;;;;;;5032128;28;20078;-77
2023/03/30 12:04:04;;;;;;;7.22;2.78;;;;;;;;;;5041602;28;20048;-79
2023/03/30 12:06:50;;;;;;;7.35;2.55;;;;;;;;;;5017160;28;20021;-72
2023/03/30 12:10:02;;;;;;;7.72;2.70;;;;;;;;;;5029384;28;20034;-77
2023/03/30 12:12:50;;;;;;;5.10;2.47;;;;;;;;;;5021063;28;20029;-72
2023/03/30 12:15:43;;;;;;;5.50;2.08;;;;;;;;;;5028124;28;20041;-70
2023/03/30 12:18:41;;;;;;;7.78;3.03;;;;;;;;;;5026883;28;20640;-72
2023/03/30 12:21:26;;;;;;;6.32;2.65;;;;;;;;;;5032422;28;20095;-72
2023/03/30 12:24:24;;;;;;;10.50;2.67;;;;;;;;;;5018208;28;20025;-68
2023/03/30 12:27:10;;;;;;;6.57;2.97;;;;;;;;;;5030429;28;20033;-72
2023/03/30 12:30:09;;;;;;;8.80;3.13;;;;;;;;;;5016490;28;20025;-78
2023/03/30 12:32:55;;;;;;;;;;;;;;;;;;5014941;28;20128;-80
2023/03/30 12:35:51;;;;;;;7.97;2.65;;;;;;;;;;5012863;28;20372;-81
2023/03/30 12:38:39;;;;;;;9.70;3.80;;;;;;;;;;5011581;28;20044;-77
2023/03/30 12:41:25;;;;;;;10.15;3.40;;;;;;;;;;5028502;28;20084;-75
2023/03/30 12:44:20;;;;;;;7.75;2.67;;;;;;;;;;5029124;28;20044;-79
2023/03/30 12:47:08;;;;;;;9.55;3.00;;;;;;;;;;5029046;28;20440;-76
2023/03/30 12:49:57;;;;;;;9.63;2.85;;;;;;;;;;5027303;28;20061;-72
2023/03/30 12:52:45;;;;;;;8.18;3.80;;;;;;;;;;5030792;28;20037;-76
2023/03/30 12:55:33;;;;;;;7.20;2.80;;;;;;;;;;5028311;28;20064;-71
2023/03/30 12:58:29;;;;;;;8.27;2.67;;;;;;;;;;5015123;28;20033;-74
2023/03/30 13:01:21;;;;;;;10.48;3.90;;;;;;;;;;5025591;28;20029;-73
2023/03/30 13:04:13;;;;;;;5.63;2.83;;;;;;;;;;5025269;28;20033;-72
2023/03/30 13:07:01;;;;;;;9.27;2.83;;;;;;;;;;5030070;28;20485;-70
2023/03/30 13:09:52;;;;;;;10.80;2.97;;;;;;;;;;5028569;28;20013;-68
2023/03/30 13:12:39;;;;;;;8.02;2.97;;;;;;;;;;5031186;28;20041;-69
2023/03/30 13:15:36;;;;;;;8.15;2.80;;;;;;;;;;5026731;28;20438;-70
2023/03/30 13:18:39;;;;;;;6.97;2.63;;;;;;;;;;5028271;28;20021;-69
2023/03/30 13:21:24;;;;;;;7.78;2.42;;;;;;;;;;5022679;28;20033;-77
2023/03/30 13:24:28;;;;;;;6.47;2.70;;;;;;;;;;5036377;28;20064;-73
2023/03/30 13:27:17;;;;;;;8.15;2.13;;;;;;;;;;5015647;28;20055;-73
2023/03/30 13:30:13;;;;;;;6.05;2.60;;;;;;;;;;5029884;28;20040;-72
2023/03/30 13:33:14;;;;;;;9.27;2.35;;;;;;;;;;5040584;28;20033;-73
2023/03/30 13:36:04;;;;;;;3.83;2.40;;;;;;;;;;5034213;28;20048;-73
2023/03/30 13:38:58;;;;;;;9.35;3.03;;;;;;;;;;5030070;28;20459;-73
2023/03/30 13:41:44;;;;;;;8.77;2.78;;;;;;;;;;5018185;28;20088;-73
2023/03/30 13:44:38;;;;;;;7.85;2.55;;;;;;;;;;5029827;28;20923;-71
2023/03/30 13:47:43;;;;;;;7.45;2.30;;;;;;;;;;5034264;28;20090;-72
2023/03/30 13:50:30;;;;;;;8.60;2.50;;;;;;;;;;5027695;28;20041;-73
2023/03/30 13:53:16;;;;;;;11.52;2.88;;;;;;;;;;5026706;28;20052;-70
2023/03/30 13:56:05;;;;;;;6.03;2.28;;;;;;;;;;5014776;28;20025;-73
2023/03/30 13:58:50;;;;;;;;;;;;;;;;;;5022211;28;20418;-73
2023/03/30 14:01:36;;;;;;;6.35;2.50;;;;;;;;;;5022108;28;20099;-71
2023/03/30 14:04:22;;;;;;;7.72;2.42;;;;;;;;;;5029766;28;20029;-71
2023/03/30 14:07:15;;;;;;;9.25;2.63;;;;;;;;;;5012272;28;20037;-72
2023/03/30 14:10:03;;;;;;;6.30;2.47;;;;;;;;;;5030717;28;20062;-72
2023/03/30 14:12:53;;;;;;;8.23;2.22;;;;;;;;;;5040935;28;20032;-72
2023/03/30 14:15:38;;;;;;;5.95;2.45;;;;;;;;;;5031969;28;20385;-78
2023/03/30 14:18:24;;;;;;;6.15;1.90;;;;;;;;;;5010405;28;20048;-74
2023/03/30 14:21:11;;;;;;;4.55;2.30;;;;;;;;;;5017445;28;20118;-74
2023/03/30 14:24:00;;;;;;;3.50;1.98;;;;;;;;;;5017350;28;20021;-74
2023/03/30 14:26:46;;;;;;;7.78;2.17;;;;;;;;;;5012906;28;20021;-74
2023/03/30 14:29:31;;;;;;;4.43;1.70;;;;;;;;;;5027168;28;20144;-73
2023/03/30 14:32:19;;;;;;;7.53;2.03;;;;;;;;;;5027962;28;20120;-76
2023/03/30 14:35:07;;;;;;;10.10;2.20;;;;;;;;;;5009695;28;20037;-82
2023/03/30 14:37:52;;;;;;;5.88;1.95;;;;;;;;;;5035769;28;20030;-76
2023/03/30 14:40:38;;;;;;;7.60;1.77;;;;;;;;;;5019726;28;20041;-75
2023/03/30 14:43:26;;;;;;;5.90;2.15;;;;;;;;;;5027672;28;20104;-76
2023/03/30 14:46:11;;;;;;;6.43;2.15;;;;;;;;;;5031306;28;20021;-78
2023/03/30 14:48:56;;;;;;;5.30;2.05;;;;;;;;;;5051255;28;20061;-77
2023/03/30 14:51:45;;;;;;;7.00;2.15;;;;;;;;;;5028173;28;20036;-76
2023/03/30 14:54:30;;;;;;;3.65;1.38;;;;;;;;;;5028370;28;20420;-76
2023/03/30 14:57:16;;;;;;;4.72;1.83;;;;;;;;;;5016894;28;20365;-77
2023/03/30 15:03:15;;;;;;;4.00;1.55;;;;;;;;;;5018967;28;20128;-74
2023/03/30 15:06:01;;;;;;;3.50;1.80;;;;;;;;;;5031767;28;20018;-74
2023/03/30 15:08:47;;;;;;;4.72;1.83;;;;;;;;;;5028975;28;20431;-74
2023/03/30 15:11:33;;;;;;;3.78;1.70;;;;;;;;;;5028722;28;20399;-73
2023/03/30 15:14:21;;;;;;;4.85;2.20;;;;;;;;;;5031000;28;20025;-73
2023/03/30 15:17:10;;;;;;;6.93;1.90;;;;;;;;;;5032469;28;20541;-73
2023/03/30 15:19:57;;;;;;;8.32;2.05;;;;;;;;;;5037806;28;20020;-72
2023/03/30 15:22:44;;;;;;;7.10;1.65;;;;;;;;;;5038291;28;20392;-72
2023/03/30 15:25:31;;;;;;;5.65;1.83;;;;;;;;;;5033744;28;20083;-74
2023/03/30 15:28:17;;;;;;;4.25;1.65;;;;;;;;;;5034538;28;20056;-72
2023/03/30 15:31:03;;;;;;;6.53;1.80;;;;;;;;;;5031774;28;20025;-77
2023/03/30 15:33:53;;;;;;;5.05;1.83;;;;;;;;;;5016824;28;20025;-74
2023/03/30 15:36:39;;;;;;;7.70;2.20;;;;;;;;;;5032901;28;20485;-74
2023/03/30 15:39:32;;;;;;;3.90;1.50;;;;;;;;;;5032597;28;20509;-74
2023/03/30 15:42:24;;;;;;;4.15;1.70;;;;;;;;;;5020382;28;20048;-75
2023/03/30 15:45:10;;;;;;;4.38;1.98;;;;;;;;;;5020688;28;20021;-74
2023/03/30 15:47:56;;;;;;;3.97;1.63;;;;;;;;;;5040912;28;20052;-74
2023/03/30 15:50:43;;;;;;;10.18;1.90;;;;;;;;;;5049136;28;20025;-69
2023/03/30 15:53:32;;;;;;;6.45;1.70;;;;;;;;;;5018365;28;20025;-71
2023/03/30 15:56:30;;;;;;;6.03;1.40;;;;;;;;;;5016015;28;20087;-71
2023/03/30 15:59:18;;;;;;;5.45;2.03;;;;;;;;;;5041865;28;20021;-72
2023/03/30 16:02:17;;;;;;;3.78;1.77;;;;;;;;;;5027884;28;20022;-71
2023/03/30 16:05:04;;;;;;;6.32;1.33;;;;;;;;;;5033315;28;20094;-71
2023/03/30 16:07:49;;;;;;;5.28;1.20;;;;;;;;;;5030550;28;20041;-79
2023/03/30 16:10:35;;;;;;;3.03;1.15;;;;;;;;;;5036772;28;20603;-72
2023/03/30 16:13:21;;;;;;;6.13;1.23;;;;;;;;;;5031862;28;20029;-72
2023/03/30 16:16:06;;;;;;;2.17;1.02;;;;;;;;;;5044322;28;20037;-70
2023/03/30 16:18:52;;;;;;;2.50;1.17;;;;;;;;;;5028269;28;20045;-71
2023/03/30 16:21:37;;;;;;;2.42;1.05;;;;;;;;;;5035787;28;20112;-74
2023/03/30 16:24:22;;;;;;;4.15;1.10;;;;;;;;;;5031209;28;20029;-83
2023/03/30 16:27:09;;;;;;;5.22;1.10;;;;;;;;;;5019656;28;20025;-72
2023/03/30 16:29:55;;;;;;;4.93;1.50;;;;;;;;;;5027391;28;20102;-80
2023/03/30 16:32:40;;;;;;;2.92;1.38;;;;;;;;;;5016065;28;20025;-83
2023/03/30 16:35:25;;;;;;;1.73;1.00;;;;;;;;;;5016383;28;20029;-82
2023/03/30 16:38:17;;;;;;;5.18;1.77;;;;;;;;;;5016657;28;20013;-81
2023/03/30 16:41:02;;;;;;;4.78;1.83;;;;;;;;;;5030148;28;20137;-82
2023/03/30 16:43:48;;;;;;;2.05;1.13;;;;;;;;;;5030106;28;20100;-70
2023/03/30 16:46:33;;;;;;;3.13;1.02;;;;;;;;;;5036794;28;20052;-69
2023/03/30 16:49:23;;;;;;;3.90;1.75;;;;;;;;;;5000863;28;20127;-70